Detroit, Michigan
Traffic Map
Current Weather Conditions
Detroit, Michigan
Clear
Clear

Feels Like: 3°
Wind Chill: Ceiling: Unl
Heat Index: Visibility: 15mi
Dew Point: Wind: 8mph
Humidity: 87% Direction: 30° (NNE)
Pressure: 30.27in Gusts: 0mph
Raw Report DataCYQG 230300Z 03007KT 15SM SKC 06/04 A3027 RMK SLP256
Traffic Incident Summary
Active as of:
Severity:
Category:
InformationThere was an issue retrieving the traffic information for this location. Please try a different location or try again shortly.
Advertisements
Track Severe Weather on mobile